Time;durP1;ratioP1;P1;durP2;ratioP2;P2;SDS_P1;SDS_P2;PMS_P1;PMS_P2;Temp;Humidity;BMP_temperature;BMP_pressure;BME280_temperature;BME280_humidity;BME280_pressure;Samples;Min_cycle;Max_cycle;Signal;HPM_P1;HPM_P2
2023/06/09 00:02:22;;;;;;;17.17;4.50;;;;;;;21.75;47.92;100284.53;1823589;78;21920;-81
2023/06/09 00:05:32;;;;;;;8.08;3.95;;;;;;;21.69;48.18;100282.20;1825108;78;21288;-80
2023/06/09 00:08:36;;;;;;;9.58;5.47;;;;;;;21.71;48.28;100285.56;1825495;78;21304;-80
2023/06/09 00:11:42;;;;;;;9.55;4.30;;;;;;;21.50;48.86;100280.17;1823738;78;21333;-81
2023/06/09 00:14:49;;;;;;;7.75;4.40;;;;;;;21.56;48.93;100276.39;1822544;78;21286;-80
2023/06/09 00:17:56;;;;;;;7.97;4.50;;;;;;;21.71;48.64;100274.43;1824449;78;21335;-80
2023/06/09 00:21:03;;;;;;;10.45;3.80;;;;;;;21.64;48.79;100278.78;1823592;78;21332;-80
2023/06/09 00:24:08;;;;;;;13.65;4.85;;;;;;;21.73;48.81;100275.02;1825079;78;21276;-79
2023/06/09 00:27:13;;;;;;;23.75;5.10;;;;;;;21.71;48.90;100280.00;1824990;78;21288;-80
2023/06/09 00:30:22;;;;;;;8.58;4.75;;;;;;;21.71;48.98;100270.80;1824989;78;21283;-80
2023/06/09 00:33:30;;;;;;;10.38;4.17;;;;;;;21.69;49.03;100264.95;1824025;78;21319;-80
2023/06/09 00:36:36;;;;;;;16.32;4.78;;;;;;;21.65;49.08;100269.33;1825287;78;21862;-80
2023/06/09 00:39:42;;;;;;;10.80;5.08;;;;;;;21.81;48.76;100269.59;1825283;78;21284;-80
2023/06/09 00:42:48;;;;;;;11.95;4.83;;;;;;;21.81;48.70;100267.65;1823930;78;21890;-80
2023/06/09 00:45:53;;;;;;;11.20;5.15;;;;;;;21.79;48.72;100270.41;1825060;78;21303;-79
2023/06/09 00:49:00;;;;;;;16.05;5.00;;;;;;;21.89;48.43;100263.62;1823924;78;21299;-80
2023/06/09 00:52:05;;;;;;;10.85;4.95;;;;;;;21.82;48.60;100261.53;1824558;78;21295;-80
2023/06/09 00:55:12;;;;;;;14.80;5.10;;;;;;;21.76;48.74;100267.56;1825293;78;21284;-80
2023/06/09 00:58:17;;;;;;;12.43;5.45;;;;;;;21.79;48.78;100267.07;1825245;78;21320;-80
2023/06/09 01:01:23;;;;;;;14.65;5.22;;;;;;;21.83;48.79;100262.69;1824829;78;21354;-80
2023/06/09 01:04:29;;;;;;;16.37;5.22;;;;;;;21.80;48.98;100256.22;1823863;78;21382;-80
2023/06/09 01:07:54;;;;;;;12.53;5.78;;;;;;;21.74;49.31;100260.55;1825890;78;21862;-80
2023/06/09 01:11:21;;;;;;;14.90;5.62;;;;;;;21.63;49.73;100260.91;1825311;78;21295;-80
2023/06/09 01:14:24;;;;;;;14.05;6.42;;;;;;;21.60;49.95;100263.67;1825020;78;21303;-80
2023/06/09 01:17:30;;;;;;;16.48;5.60;;;;;;;21.58;50.05;100258.88;1821134;78;21307;-81
2023/06/09 01:20:46;;;;;;;15.60;5.65;;;;;;;21.71;49.82;100266.63;1822352;78;21311;-81
2023/06/09 01:24:30;;;;;;;20.05;6.20;;;;;;;21.53;50.19;100264.35;1822196;78;21283;-81
2023/06/09 01:27:37;;;;;;;15.65;5.80;;;;;;;21.51;50.17;100264.33;1797582;78;21306;-81
2023/06/09 01:30:43;;;;;;;16.45;6.33;;;;;;;21.54;49.98;100264.64;1822341;78;21288;-81
2023/06/09 01:33:51;;;;;;;27.30;6.95;;;;;;;21.27;50.57;100269.95;1821528;78;21320;-81
2023/06/09 01:36:51;;;;;;;11.10;5.75;;;;;;;21.19;50.85;100271.73;1820735;78;21295;-81
2023/06/09 01:39:46;;;;;;;22.07;6.78;;;;;;;21.18;50.73;100276.45;1821275;78;21197;-81
2023/06/09 01:42:32;;;;;;;20.40;6.72;;;;;;;21.16;50.81;100270.27;1821631;78;21902;-81
2023/06/09 01:45:37;;;;;;;19.50;6.53;;;;;;;21.19;50.68;100267.56;1822170;78;21283;-81
2023/06/09 01:49:08;;;;;;;21.77;6.58;;;;;;;21.30;50.35;100268.05;1822216;78;22637;-81
2023/06/09 01:52:31;;;;;;;17.45;5.62;;;;;;;21.21;50.50;100269.53;1822101;78;21299;-81
2023/06/09 01:55:43;;;;;;;23.15;6.95;;;;;;;21.09;50.90;100267.36;1822266;78;21295;-81
2023/06/09 01:58:54;;;;;;;17.98;7.12;;;;;;;21.27;50.80;100267.17;1820767;78;21225;-80
2023/06/09 02:02:00;;;;;;;12.00;5.65;;;;;;;21.59;50.22;100269.46;1822858;78;21306;-80
2023/06/09 02:05:07;;;;;;;17.95;5.55;;;;;;;21.94;49.42;100263.70;1822310;78;21288;-80
2023/06/09 02:08:12;;;;;;;16.05;5.83;;;;;;;22.09;49.13;100276.48;1822424;78;21276;-80
2023/06/09 02:11:18;;;;;;;10.30;6.20;;;;;;;22.44;48.32;100266.51;1822100;78;21288;-80
2023/06/09 02:14:24;;;;;;;16.05;5.80;;;;;;;22.61;47.74;100262.83;1822276;78;21220;-80
2023/06/09 02:17:32;;;;;;;17.75;5.97;;;;;;;22.64;47.34;100259.54;1821747;78;21608;-80
2023/06/09 02:20:39;;;;;;;14.63;6.05;;;;;;;22.56;47.36;100266.39;1825092;78;21866;-80
2023/06/09 02:23:46;;;;;;;14.80;6.22;;;;;;;22.51;47.29;100266.31;1824120;78;21324;-80
2023/06/09 02:26:52;;;;;;;10.25;5.80;;;;;;;22.35;47.66;100263.02;1825100;78;21327;-81
2023/06/09 02:29:57;;;;;;;15.88;5.35;;;;;;;22.29;48.00;100267.64;1825183;78;21253;-80
2023/06/09 02:33:02;;;;;;;12.55;6.03;;;;;;;22.43;48.27;100270.37;1824792;78;21279;-80
2023/06/09 02:36:09;;;;;;;16.62;6.08;;;;;;;22.92;47.80;100266.38;1825242;78;21283;-80
2023/06/09 02:39:14;;;;;;;25.60;7.60;;;;;;;23.57;46.59;100260.97;1825419;78;21315;-80
2023/06/09 02:42:21;;;;;;;23.45;10.08;;;;;;;24.11;45.50;100268.78;1825317;78;21766;-80
2023/06/09 02:45:25;;;;;;;27.67;11.48;;;;;;;24.59;44.43;100268.88;1824276;78;21315;-80
2023/06/09 02:48:32;;;;;;;23.00;10.80;;;;;;;24.71;44.04;100272.32;1825002;78;21604;-79
2023/06/09 02:51:39;;;;;;;22.02;9.53;;;;;;;25.06;43.43;100268.01;1825204;78;21279;-79
2023/06/09 02:54:45;;;;;;;18.48;9.23;;;;;;;25.50;42.61;100265.66;1823859;78;21343;-80
2023/06/09 02:57:53;;;;;;;18.95;8.15;;;;;;;25.93;41.82;100266.34;1825211;78;21280;-79
2023/06/09 03:01:01;;;;;;;16.97;7.12;;;;;;;26.43;40.95;100266.06;1824034;78;21347;-81
2023/06/09 03:04:11;;;;;;;15.53;7.05;;;;;;;26.72;40.10;100275.56;1824393;78;21351;-80
2023/06/09 03:07:17;;;;;;;;;;;;;;;27.01;39.41;100277.72;1827847;78;21909;-81
2023/06/09 03:10:22;;;;;;;18.62;5.85;;;;;;;26.99;39.24;100285.00;1825385;78;20271;-81
2023/06/09 03:13:21;;;;;;;15.25;5.10;;;;;;;27.21;39.25;100283.28;1824804;78;21861;-81
2023/06/09 03:16:28;;;;;;;17.98;5.58;;;;;;;27.63;38.56;100283.34;1823636;78;21343;-80
2023/06/09 03:19:34;;;;;;;14.45;4.50;;;;;;;27.84;38.02;100281.83;1823192;78;21351;-81
2023/06/09 03:22:41;;;;;;;15.68;5.17;;;;;;;27.97;37.64;100284.82;1825212;78;21826;-80
2023/06/09 03:25:57;;;;;;;14.25;4.25;;;;;;;28.00;37.15;100294.66;1825325;78;21878;-80
2023/06/09 03:28:58;;;;;;;13.22;4.37;;;;;;;28.06;36.53;100294.87;1825181;78;21288;-80
2023/06/09 03:32:05;;;;;;;8.35;3.80;;;;;;;28.18;35.93;100292.55;1825124;78;21817;-80
2023/06/09 03:35:12;;;;;;;8.63;3.35;;;;;;;28.30;35.79;100288.50;1823806;78;21324;-81
2023/06/09 03:38:18;;;;;;;9.23;3.72;;;;;;;28.56;35.23;100292.80;1825096;78;21296;-81
2023/06/09 03:41:26;;;;;;;11.57;3.20;;;;;;;28.86;34.94;100290.79;1824985;78;21870;-80
2023/06/09 03:44:33;;;;;;;11.20;3.60;;;;;;;28.82;34.61;100286.32;1824396;78;21327;-81
2023/06/09 03:47:39;;;;;;;9.73;3.85;;;;;;;29.11;34.39;100291.09;1825048;78;21846;-81
2023/06/09 03:50:46;;;;;;;13.95;3.67;;;;;;;29.12;33.99;100288.53;1823980;78;21319;-81
2023/06/09 03:53:53;;;;;;;14.85;3.47;;;;;;;29.27;33.62;100286.38;1825017;78;21296;-81
2023/06/09 03:56:58;;;;;;;8.83;3.80;;;;;;;29.38;33.47;100288.48;1825214;78;21307;-81
2023/06/09 03:59:58;;;;;;;17.98;3.72;;;;;;;29.62;33.57;100289.88;1824999;78;21861;-80
2023/06/09 04:02:59;;;;;;;7.55;3.87;;;;;;;29.71;33.22;100288.05;1823545;78;21288;-80
2023/06/09 04:06:07;;;;;;;8.93;3.70;;;;;;;29.64;32.86;100296.06;1825113;78;21842;-80
2023/06/09 04:09:15;;;;;;;10.95;3.40;;;;;;;29.72;32.11;100293.95;1825002;78;21846;-80
2023/06/09 04:12:21;;;;;;;9.13;3.80;;;;;;;29.52;32.66;100298.44;1825211;78;21307;-80
2023/06/09 04:15:27;;;;;;;10.38;3.67;;;;;;;29.29;32.55;100290.30;1823600;78;21309;-80
2023/06/09 04:18:35;;;;;;;7.47;3.45;;;;;;;29.10;33.24;100291.66;1825005;78;21271;-80
2023/06/09 04:21:45;;;;;;;10.40;3.65;;;;;;;29.11;32.94;100283.47;1824981;78;21280;-80
2023/06/09 04:24:52;;;;;;;11.80;3.72;;;;;;;29.01;32.79;100287.83;1824507;78;21323;-80
2023/06/09 04:28:00;;;;;;;12.25;3.30;;;;;;;29.12;33.10;100280.92;1825076;78;21280;-80
2023/06/09 04:31:10;;;;;;;9.98;3.25;;;;;;;29.26;32.28;100287.50;1823672;78;21307;-80
2023/06/09 04:34:17;;;;;;;18.42;4.12;;;;;;;29.35;32.65;100284.85;1825204;78;21314;-80
2023/06/09 04:37:25;;;;;;;13.58;3.20;;;;;;;28.95;32.85;100287.63;1824911;78;21276;-80
2023/06/09 04:40:31;;;;;;;14.53;4.17;;;;;;;29.33;32.44;100283.50;1825038;78;21284;-80
2023/06/09 04:43:39;;;;;;;15.38;4.25;;;;;;;29.42;32.39;100276.05;1825009;78;21339;-80
2023/06/09 04:46:46;;;;;;;18.80;4.87;;;;;;;29.39;32.57;100289.32;1824662;78;21873;-80
2023/06/09 04:49:53;;;;;;;13.95;4.65;;;;;;;29.45;31.51;100271.20;1824556;78;21350;-80
2023/06/09 04:52:59;;;;;;;17.95;5.40;;;;;;;29.48;31.63;100277.64;1825187;78;21284;-80
2023/06/09 04:56:06;;;;;;;13.85;3.75;;;;;;;29.54;31.18;100272.20;1824570;78;21280;-81
2023/06/09 04:59:13;;;;;;;20.95;4.40;;;;;;;29.59;31.73;100270.74;1825036;78;21292;-80
2023/06/09 05:02:13;;;;;;;17.55;4.47;;;;;;;29.87;31.25;100267.50;1824292;78;21624;-80
2023/06/09 05:05:08;;;;;;;18.07;4.25;;;;;;;29.97;30.94;100270.73;1824642;78;21312;-80
2023/06/09 05:08:14;;;;;;;19.67;4.95;;;;;;;30.06;30.83;100275.94;1825149;78;21878;-80
2023/06/09 05:11:21;;;;;;;14.78;4.55;;;;;;;30.18;31.07;100271.28;1825052;78;21315;-80
2023/06/09 05:14:27;;;;;;;13.38;4.60;;;;;;;30.31;30.55;100269.66;1825184;78;21280;-80
2023/06/09 05:17:27;;;;;;;;;;;;;;;30.52;30.47;100272.36;1827267;78;21307;-80
2023/06/09 05:20:33;;;;;;;14.15;4.58;;;;;;;30.43;30.17;100272.81;1823872;78;20717;-81
2023/06/09 05:23:39;;;;;;;13.83;4.35;;;;;;;30.55;30.04;100271.17;1825946;78;21800;-81
2023/06/09 05:26:45;;;;;;;15.75;4.20;;;;;;;30.34;30.09;100267.03;1823465;78;21328;-81
2023/06/09 05:29:52;;;;;;;18.98;4.33;;;;;;;30.43;30.02;100259.53;1825203;78;21284;-81
2023/06/09 05:32:58;;;;;;;17.07;3.87;;;;;;;30.31;30.72;100254.98;1824304;78;21901;-81
2023/06/09 05:36:05;;;;;;;11.70;3.65;;;;;;;30.33;31.33;100253.25;1821030;77;21819;-81
2023/06/09 05:39:13;;;;;;;13.62;4.08;;;;;;;30.47;30.19;100259.77;1797582;77;21846;-81
2023/06/09 05:42:19;;;;;;;12.28;3.77;;;;;;;30.73;30.43;100254.52;1812790;77;21300;-81
2023/06/09 05:45:25;;;;;;;15.05;3.90;;;;;;;31.00;29.31;100256.49;1806266;79;21335;-81
2023/06/09 05:48:31;;;;;;;8.83;3.15;;;;;;;30.99;29.00;100252.83;1805445;79;21941;-81
2023/06/09 05:51:36;;;;;;;12.25;3.75;;;;;;;31.06;28.66;100249.61;1806410;79;21276;-81
2023/06/09 05:54:42;;;;;;;11.60;2.87;;;;;;;31.17;28.85;100249.64;1806466;79;21343;-81
2023/06/09 05:57:49;;;;;;;10.82;3.02;;;;;;;31.30;28.86;100243.75;1767183;79;21612;-81
2023/06/09 06:00:59;;;;;;;14.47;3.70;;;;;;;31.52;28.50;100239.58;1764742;81;21287;-81
2023/06/09 06:04:02;;;;;;;7.87;3.10;;;;;;;31.63;28.50;100232.27;1803935;78;21312;-81
2023/06/09 06:07:08;;;;;;;10.55;2.85;;;;;;;31.73;28.49;100244.16;1824538;78;21336;-81
2023/06/09 06:10:15;;;;;;;8.30;3.30;;;;;;;31.83;27.95;100240.28;1827338;78;21290;-80
2023/06/09 06:13:21;;;;;;;15.65;3.60;;;;;;;31.96;27.85;100238.56;1816419;78;21289;-80
2023/06/09 06:16:21;;;;;;;7.65;2.80;;;;;;;31.98;27.75;100226.34;1794975;78;21301;-81
2023/06/09 06:19:14;;;;;;;6.78;3.00;;;;;;;31.93;26.93;100227.88;1812618;77;21868;-81
2023/06/09 06:22:22;;;;;;;18.00;3.02;;;;;;;31.69;26.63;100236.05;1813116;78;21315;-81
2023/06/09 06:25:28;;;;;;;6.85;2.85;;;;;;;31.67;25.72;100231.31;1801177;78;21259;-80
2023/06/09 06:28:34;;;;;;;7.90;2.70;;;;;;;31.85;26.56;100233.71;1768032;78;21304;-82
2023/06/09 06:31:40;;;;;;;6.50;3.08;;;;;;;31.76;27.06;100232.22;1750858;81;21283;-82
2023/06/09 06:34:47;;;;;;;4.75;2.98;;;;;;;31.83;27.06;100230.97;1727410;81;21343;-81
2023/06/09 06:37:52;;;;;;;8.05;2.58;;;;;;;31.59;27.25;100224.16;1825519;78;21297;-82
2023/06/09 06:40:58;;;;;;;10.08;2.52;;;;;;;31.64;27.07;100223.45;1816454;78;21273;-81
2023/06/09 06:44:05;;;;;;;5.92;2.55;;;;;;;31.69;25.25;100220.50;1822890;78;21278;-81
2023/06/09 06:47:10;;;;;;;6.97;2.75;;;;;;;31.55;24.96;100222.55;1821733;78;21315;-80
2023/06/09 06:50:16;;;;;;;8.53;3.00;;;;;;;31.67;24.99;100220.00;1825355;78;21316;-81
2023/06/09 06:53:23;;;;;;;15.53;3.05;;;;;;;31.73;25.83;100214.47;1824787;77;21263;-81
2023/06/09 06:56:29;;;;;;;8.45;2.75;;;;;;;31.85;25.37;100211.67;1772698;80;21292;-80
2023/06/09 06:59:36;;;;;;;5.22;2.42;;;;;;;31.92;25.97;100210.08;1756730;81;21866;-80
2023/06/09 07:02:41;;;;;;;9.28;2.72;;;;;;;31.99;24.94;100216.69;1740405;81;21309;-80
2023/06/09 07:05:46;;;;;;;5.90;2.12;;;;;;;32.19;24.22;100213.34;1739250;81;21279;-81
2023/06/09 07:08:54;;;;;;;4.90;2.05;;;;;;;32.35;23.92;100225.67;1757535;81;21268;-81
2023/06/09 07:12:01;;;;;;;5.33;2.77;;;;;;;32.52;23.63;100220.14;1751310;80;21279;-80
2023/06/09 07:15:07;;;;;;;7.83;2.30;;;;;;;32.44;24.00;100220.93;1768696;80;22474;-80
2023/06/09 07:18:14;;;;;;;7.90;3.12;;;;;;;32.33;24.89;100216.69;1758170;81;22003;-81
2023/06/09 07:21:21;;;;;;;6.30;2.75;;;;;;;32.45;24.15;100214.93;1759783;81;21273;-80
2023/06/09 07:24:27;;;;;;;12.47;2.58;;;;;;;32.62;23.83;100219.02;1743921;80;22136;-80
2023/06/09 07:27:33;;;;;;;6.50;2.62;;;;;;;32.71;23.68;100212.23;1735579;81;21283;-80
2023/06/09 07:30:39;;;;;;;12.75;2.98;;;;;;;32.56;23.71;100215.50;1733169;81;21247;-80
2023/06/09 07:33:46;;;;;;;5.53;2.62;;;;;;;32.52;24.04;100212.48;1726582;81;21291;-80
2023/06/09 07:36:52;;;;;;;7.80;2.50;;;;;;;32.62;24.42;100212.78;1733874;81;21307;-80
2023/06/09 07:39:58;;;;;;;10.45;2.52;;;;;;;32.61;23.55;100223.86;1738718;81;21284;-80
2023/06/09 07:43:09;;;;;;;6.12;2.20;;;;;;;32.42;23.47;100217.02;1793034;78;21837;-81
2023/06/09 07:46:07;;;;;;;5.30;2.22;;;;;;;32.59;23.58;100212.00;1777665;80;21307;-80
2023/06/09 07:49:14;;;;;;;11.08;2.60;;;;;;;32.97;23.28;100222.84;1796831;78;21325;-81
2023/06/09 07:52:21;;;;;;;5.33;2.42;;;;;;;32.91;22.51;100211.42;1799392;78;21873;-81
2023/06/09 07:55:27;;;;;;;3.98;2.33;;;;;;;33.52;22.87;100210.99;1799027;79;21306;-81
2023/06/09 07:58:33;;;;;;;6.35;2.45;;;;;;;33.66;22.29;100208.83;1789238;79;21306;-80
2023/06/09 08:01:40;;;;;;;4.80;2.30;;;;;;;33.62;22.08;100212.66;1776878;78;21294;-80
2023/06/09 08:04:46;;;;;;;6.20;2.17;;;;;;;33.49;22.76;100222.98;1793758;79;21329;-81
2023/06/09 08:07:52;;;;;;;6.60;2.22;;;;;;;33.29;21.82;100218.77;1780412;79;21394;-81
2023/06/09 08:10:58;;;;;;;6.92;2.30;;;;;;;33.27;22.01;100214.02;1792977;78;21314;-81
2023/06/09 08:14:06;;;;;;;5.17;2.10;;;;;;;33.32;22.57;100213.28;1782655;80;21185;-80
2023/06/09 08:17:11;;;;;;;7.53;2.05;;;;;;;33.33;21.75;100201.35;1782707;80;21342;-80
2023/06/09 08:20:13;;;;;;;6.00;2.20;;;;;;;33.36;21.92;100191.33;1757461;81;21381;-80
2023/06/09 08:23:07;;;;;;;6.83;2.58;;;;;;;33.53;21.10;100189.97;1738944;81;21308;-81
2023/06/09 08:26:12;;;;;;;3.35;2.10;;;;;;;33.39;21.30;100185.84;1716330;81;21865;-80
2023/06/09 08:29:18;;;;;;;5.90;2.10;;;;;;;33.36;21.59;100198.42;1775308;80;21340;-80
2023/06/09 08:32:25;;;;;;;5.22;2.30;;;;;;;33.44;21.71;100191.38;1753453;80;21310;-80
2023/06/09 08:35:32;;;;;;;6.47;2.10;;;;;;;33.54;21.66;100191.05;1769879;79;21315;-80
2023/06/09 08:38:42;;;;;;;8.35;2.87;;;;;;;34.22;21.33;100212.64;1754396;80;21297;-80
2023/06/09 08:41:51;;;;;;;4.37;1.98;;;;;;;34.83;20.68;100214.71;1798066;78;21927;-80
2023/06/09 08:44:58;;;;;;;4.70;1.98;;;;;;;34.26;20.24;100204.29;1762678;79;21290;-80
2023/06/09 08:48:00;;;;;;;8.30;2.87;;;;;;;34.06;21.16;100210.06;1751937;81;21753;-80
2023/06/09 08:51:08;;;;;;;6.40;2.42;;;;;;;33.52;22.21;100203.31;1762949;80;21294;-81
2023/06/09 08:54:13;;;;;;;3.30;1.80;;;;;;;32.99;21.99;100193.63;1763115;80;21299;-81
2023/06/09 08:57:19;;;;;;;5.62;2.55;;;;;;;32.90;23.27;100202.09;1757265;80;21287;-81
2023/06/09 09:00:25;;;;;;;9.43;2.17;;;;;;;32.75;23.35;100205.34;1763031;80;21272;-81
2023/06/09 09:03:32;;;;;;;5.70;2.62;;;;;;;32.55;22.86;100187.75;1782149;79;21894;-81
2023/06/09 09:06:31;;;;;;;8.88;2.33;;;;;;;32.58;22.43;100176.37;1785161;80;21295;-81
2023/06/09 09:09:36;;;;;;;6.30;2.65;;;;;;;32.65;22.91;100184.38;1782762;80;21319;-81
2023/06/09 09:12:59;;;;;;;4.00;2.47;;;;;;;32.73;22.79;100184.41;1763330;81;21296;-81
2023/06/09 09:16:07;;;;;;;16.67;2.98;;;;;;;32.86;22.29;100171.30;1761939;81;21272;-81
2023/06/09 09:19:13;;;;;;;4.85;2.60;;;;;;;32.84;22.58;100167.95;1761431;79;21289;-81
2023/06/09 09:22:19;;;;;;;12.37;2.70;;;;;;;32.94;22.22;100166.87;1790982;80;21323;-81
2023/06/09 09:25:33;;;;;;;4.75;2.35;;;;;;;32.81;22.72;100159.55;1783869;78;21909;-81
2023/06/09 09:28:50;;;;;;;7.75;2.90;;;;;;;32.61;22.84;100155.91;1804062;78;21848;-81
2023/06/09 09:31:58;;;;;;;6.37;2.27;;;;;;;32.67;23.04;100154.59;1809273;78;21286;-80
2023/06/09 09:35:03;;;;;;;12.80;2.30;;;;;;;32.69;22.20;100152.25;1804684;78;21297;-81
2023/06/09 09:38:04;;;;;;;3.33;2.22;;;;;;;32.66;21.53;100163.42;1811221;78;21316;-81
2023/06/09 09:41:11;;;;;;;3.85;2.02;;;;;;;32.70;22.25;100151.11;1806235;77;21309;-81
2023/06/09 09:44:19;;;;;;;8.08;2.52;;;;;;;32.79;21.79;100149.70;1798613;78;21300;-81
2023/06/09 09:47:24;;;;;;;5.85;2.33;;;;;;;32.70;22.22;100147.42;1793846;79;21343;-81
2023/06/09 09:50:33;;;;;;;8.10;2.00;;;;;;;32.88;22.19;100153.38;1806602;78;21315;-81
2023/06/09 09:53:32;;;;;;;4.90;2.00;;;;;;;32.86;21.67;100134.48;1815162;77;21296;-81
2023/06/09 09:56:27;;;;;;;6.42;2.30;;;;;;;32.72;21.52;100129.53;1806157;78;21269;-81
2023/06/09 09:59:32;;;;;;;5.05;2.10;;;;;;;32.79;21.77;100127.90;1794756;80;21300;-80
2023/06/09 10:02:39;;;;;;;4.47;2.12;;;;;;;32.80;21.72;100132.39;1798095;76;21854;-80
2023/06/09 10:05:46;;;;;;;4.22;2.20;;;;;;;32.85;21.37;100124.91;1816465;76;22046;-81
2023/06/09 10:08:52;;;;;;;9.13;2.30;;;;;;;32.95;22.20;100135.37;1811744;78;21276;-81
2023/06/09 10:12:03;;;;;;;5.60;2.20;;;;;;;32.81;21.30;100114.23;1812468;77;21305;-81
2023/06/09 10:15:09;;;;;;;8.20;2.20;;;;;;;32.88;22.34;100119.40;1804923;76;21323;-81
2023/06/09 10:18:14;;;;;;;4.42;2.20;;;;;;;33.15;22.02;100125.39;1801002;79;21347;-81
2023/06/09 10:21:19;;;;;;;6.70;2.25;;;;;;;33.10;21.44;100111.39;1818868;78;21303;-81
2023/06/09 10:24:25;;;;;;;6.65;2.40;;;;;;;33.06;22.17;100106.13;1824874;78;21282;-81
2023/06/09 10:27:31;;;;;;;7.85;2.15;;;;;;;33.16;22.53;100112.89;1821424;77;21337;-81
2023/06/09 10:30:38;;;;;;;7.65;2.33;;;;;;;33.16;22.50;100100.72;1802323;78;21346;-81
2023/06/09 10:33:48;;;;;;;5.70;2.87;;;;;;;33.24;22.23;100092.81;1777986;78;21318;-81
2023/06/09 10:36:54;;;;;;;12.03;2.67;;;;;;;33.22;22.56;100099.38;1788084;78;21279;-80
2023/06/09 10:40:14;;;;;;;8.75;3.02;;;;;;;33.43;22.61;100095.34;1820263;78;21279;-81
2023/06/09 10:43:33;;;;;;;3.90;2.50;;;;;;;33.56;22.04;100092.91;1805844;78;21358;-80
2023/06/09 10:46:54;;;;;;;5.37;2.42;;;;;;;33.41;22.35;100097.66;1828897;78;21287;-81
2023/06/09 10:49:59;;;;;;;3.92;2.10;;;;;;;33.91;22.16;100102.77;1826022;78;21326;-80
2023/06/09 10:53:07;;;;;;;8.73;2.55;;;;;;;33.61;22.91;100088.48;1817862;78;21944;-81
2023/06/09 10:56:42;;;;;;;8.75;2.37;;;;;;;33.75;23.05;100093.38;1813973;78;21272;-80
2023/06/09 10:59:58;;;;;;;16.95;2.75;;;;;;;33.65;21.83;100088.66;1814110;78;21298;-81
2023/06/09 11:03:18;;;;;;;15.10;3.33;;;;;;;33.50;22.37;100083.75;1819692;78;21314;-80
2023/06/09 11:06:26;;;;;;;16.52;2.75;;;;;;;33.40;22.04;100074.13;1825451;78;21878;-80
2023/06/09 11:09:32;;;;;;;5.35;2.72;;;;;;;33.83;21.88;100071.27;1786472;80;21300;-80
2023/06/09 11:12:52;;;;;;;5.05;2.08;;;;;;;34.00;21.37;100075.23;1772959;79;21919;-81
2023/06/09 11:16:04;;;;;;;3.07;2.17;;;;;;;34.69;21.66;100056.48;1745972;81;21303;-81
2023/06/09 11:18:53;;;;;;;5.15;2.20;;;;;;;34.69;21.66;100056.48;1757697;81;21810;-81
2023/06/09 11:22:10;;;;;;;9.93;2.77;;;;;;;34.92;21.74;100066.10;1754647;81;21313;-81
2023/06/09 11:25:18;;;;;;;7.15;2.35;;;;;;;35.00;21.29;100070.90;1755696;81;21295;-81
2023/06/09 11:28:25;;;;;;;5.80;2.05;;;;;;;34.94;20.82;100060.30;1752196;80;21299;-80
2023/06/09 11:31:31;;;;;;;5.37;2.17;;;;;;;35.02;20.26;100055.77;1738004;81;21850;-80
2023/06/09 11:35:03;;;;;;;9.30;2.30;;;;;;;35.16;20.96;100044.95;1752484;81;21303;-80
2023/06/09 11:38:13;;;;;;;6.97;2.17;;;;;;;35.10;21.22;100042.05;1729089;81;21299;-80
2023/06/09 11:41:21;;;;;;;8.15;2.67;;;;;;;35.14;20.93;100043.63;1726848;83;21288;-80
2023/06/09 11:44:27;;;;;;;4.92;2.58;;;;;;;35.06;21.07;100038.27;1754112;81;21978;-80
2023/06/09 11:47:35;;;;;;;7.20;2.35;;;;;;;35.10;20.76;100037.80;1758005;81;21311;-80
2023/06/09 11:50:52;;;;;;;6.85;1.87;;;;;;;34.86;21.09;100036.21;1738622;81;21329;-80
2023/06/09 11:53:57;;;;;;;7.65;2.20;;;;;;;34.74;21.78;100039.23;1752245;82;21655;-80
2023/06/09 11:57:02;;;;;;;10.28;2.52;;;;;;;34.84;21.66;100031.72;1733086;81;21302;-80
2023/06/09 12:00:14;;;;;;;8.20;2.33;;;;;;;34.92;20.72;100035.68;1755698;81;21877;-80
2023/06/09 12:03:23;;;;;;;6.50;2.58;;;;;;;34.92;20.72;100035.68;1757312;81;21299;-80
2023/06/09 12:06:28;;;;;;;9.48;2.12;;;;;;;34.94;21.25;100034.73;1739767;81;21295;-81
2023/06/09 12:09:34;;;;;;;8.05;2.00;;;;;;;34.94;21.25;100034.73;1746220;81;21324;-80
2023/06/09 12:12:48;;;;;;;20.55;3.08;;;;;;;34.83;20.80;100022.12;1753178;81;21299;-80
2023/06/09 12:16:00;;;;;;;10.75;2.47;;;;;;;34.82;21.45;100019.87;1727896;81;21356;-81
2023/06/09 12:19:05;;;;;;;8.35;2.52;;;;;;;35.07;20.70;100016.60;1745104;80;21310;-81
2023/06/09 12:22:13;;;;;;;3.83;2.02;;;;;;;35.07;20.70;100016.60;1737430;82;21303;-81
2023/06/09 12:25:36;;;;;;;5.83;2.30;;;;;;;35.17;21.61;100011.67;1765746;81;21291;-81
2023/06/09 12:28:42;;;;;;;13.15;2.70;;;;;;;35.17;21.61;100011.67;1800648;78;21361;-80
2023/06/09 12:31:54;;;;;;;4.70;1.80;;;;;;;35.24;20.93;100017.61;1818832;78;21842;-80
2023/06/09 12:35:07;;;;;;;6.25;2.15;;;;;;;35.24;20.93;100017.61;1812211;77;21876;-80
2023/06/09 12:38:21;;;;;;;6.85;1.98;;;;;;;35.25;20.91;100012.19;1825525;77;21327;-80
2023/06/09 12:41:26;;;;;;;4.10;1.80;;;;;;;35.19;20.88;100018.66;1826764;78;21248;-80
2023/06/09 12:44:33;;;;;;;5.83;2.08;;;;;;;35.03;20.99;100006.28;1818644;78;21846;-80
2023/06/09 12:47:38;;;;;;;5.12;2.00;;;;;;;35.05;21.42;99993.96;1817915;78;21283;-81
2023/06/09 12:50:45;;;;;;;4.30;2.00;;;;;;;35.05;21.42;99993.96;1827218;78;21314;-80
2023/06/09 12:53:52;;;;;;;6.03;2.37;;;;;;;35.26;21.23;99993.95;1825831;78;21291;-81
2023/06/09 12:56:58;;;;;;;4.35;2.12;;;;;;;35.26;21.23;99993.95;1830507;78;21294;-81
2023/06/09 13:00:04;;;;;;;7.62;1.90;;;;;;;35.25;20.57;99988.86;1828363;78;21256;-80
2023/06/09 13:03:12;;;;;;;6.78;2.35;;;;;;;35.18;20.59;99994.26;1828873;78;21603;-80
2023/06/09 13:06:18;;;;;;;7.85;2.62;;;;;;;34.98;20.63;99989.45;1829345;78;21961;-80
2023/06/09 13:09:22;;;;;;;8.33;1.72;;;;;;;35.00;20.62;99974.28;1830192;78;21298;-80
2023/06/09 13:12:27;;;;;;;6.60;2.55;;;;;;;34.93;21.27;99976.84;1830106;78;21964;-80
2023/06/09 13:15:34;;;;;;;11.83;2.00;;;;;;;34.93;21.27;99976.84;1830774;78;21304;-81
2023/06/09 13:18:40;;;;;;;10.23;2.33;;;;;;;34.69;21.14;99976.95;1828341;78;21291;-81
2023/06/09 13:21:47;;;;;;;5.95;2.00;;;;;;;34.81;20.90;99972.74;1829089;78;21287;-81
2023/06/09 13:24:53;;;;;;;7.62;2.30;;;;;;;34.82;21.66;99972.18;1829440;78;21287;-81
2023/06/09 13:27:59;;;;;;;10.70;2.40;;;;;;;34.80;21.58;99959.72;1828748;78;22313;-81
2023/06/09 13:31:05;;;;;;;9.78;2.55;;;;;;;34.87;22.08;99961.20;1787972;80;21280;-81
2023/06/09 13:34:13;;;;;;;6.55;2.20;;;;;;;34.92;21.80;99963.82;1740565;82;21351;-81
2023/06/09 13:37:20;;;;;;;14.63;2.80;;;;;;;34.88;21.63;99964.27;1782551;80;21324;-81
2023/06/09 13:40:27;;;;;;;7.72;2.25;;;;;;;34.63;21.81;99962.73;1790900;79;21272;-80
2023/06/09 13:43:33;;;;;;;11.57;2.30;;;;;;;34.40;21.62;99960.77;1787322;80;21327;-81
2023/06/09 13:46:40;;;;;;;7.72;2.42;;;;;;;34.32;21.68;99963.90;1750570;82;21626;-81
2023/06/09 13:49:38;;;;;;;8.90;2.30;;;;;;;34.40;21.26;99959.35;1739606;82;21903;-81
2023/06/09 13:52:44;;;;;;;4.28;2.02;;;;;;;34.45;21.41;99959.73;1739677;82;21361;-81
2023/06/09 13:55:51;;;;;;;6.83;2.65;;;;;;;34.62;21.20;99963.87;1739798;82;21313;-81
2023/06/09 13:58:58;;;;;;;6.53;2.30;;;;;;;34.62;21.51;99965.89;1739715;82;21914;-81
2023/06/09 14:02:06;;;;;;;10.48;2.40;;;;;;;34.64;21.40;99960.12;1739562;82;21313;-81
2023/06/09 14:05:15;;;;;;;8.38;2.45;;;;;;;34.59;21.62;99953.23;1739624;82;21356;-81
2023/06/09 14:08:22;;;;;;;7.20;2.45;;;;;;;34.68;21.58;99948.91;1738282;82;21320;-81
2023/06/09 14:11:23;;;;;;;10.65;2.75;;;;;;;34.46;21.61;99955.75;1739859;82;21304;-81
2023/06/09 14:14:15;;;;;;;8.15;2.30;;;;;;;34.36;21.96;99958.97;1738383;82;21356;-81
2023/06/09 14:17:22;;;;;;;4.60;2.12;;;;;;;34.45;21.45;99949.21;1730114;80;21301;-81
2023/06/09 14:20:30;;;;;;;8.20;2.90;;;;;;;34.40;20.77;99939.48;1730503;80;21323;-81
2023/06/09 14:23:38;;;;;;;4.70;2.47;;;;;;;34.37;22.09;99936.48;1732939;81;21304;-81
2023/06/09 14:26:43;;;;;;;8.38;2.20;;;;;;;34.50;21.83;99935.43;1704261;84;21361;-81